Garden Plain, KS (67050)

8:17 PM CDT on September 30, 2014 (GMT -0500)
K0HYD, 2 Mi West of Goddard | Change Station
CLOSE
Current Station
Personal Weather Station
Location: Goddard, KS
Elevation: 1470 ft
Nearby Weather Stations
4.1 Earthquake: Perry, Oklahoma (22 hours ago)  

Elev 1470 ft 37.66 °N, 97.61 °W | Updated 5 minutes ago

Mostly Cloudy
Mostly Cloudy
77.9 °F
Feels Like 80 °F
N
9.0
Wind Variable Wind from SE
Gusts 10.0 mph

Today
High -- | Low -- °F
--% Chance of Precip.
Yesterday
High -- | Low -- °F
Precip. -- in
7:25 AM 7:15 PM
Waxing Crescent, 42% visible
Pressure 29.66 in
Visibility 10.0 miles
Clouds Few 5500 ft
Scattered Clouds 10000 ft
Mostly Cloudy 20000 ft
Heat Index 80 °F
Dew Point 62 °F
Humidity 58%
Rainfall 0.00 in
Snow Depth Not available.
UV 0 out of 12
Pollen 4.50 out of 12
Air Quality Not available.
Flu Activity Not available.
METAR KICT 010053Z 15011KT 10SM FEW055 SCT100 BKN200 26/16 A2970 RMK AO2 SLP044 CB DSNT SW NW-N MOVG NE T02560156

More Conditions Fewer Conditions

Pressure 29.66 in
Visibility 10.0 miles
Clouds Few 5500 ft
Scattered Clouds 10000 ft
Mostly Cloudy 20000 ft
Heat Index 80 °F
Dew Point 62 °F
Humidity 58%
Rainfall 0.00 in
Snow Depth Not available.
UV 0 out of 12
Pollen 4.50 out of 12
Air Quality Not available.
Flu Activity Not available.
METAR KICT 010053Z 15011KT 10SM FEW055 SCT100 BKN200 26/16 A2970 RMK AO2 SLP044 CB DSNT SW NW-N MOVG NE T02560156

More Conditions Fewer Conditions

10-Day Weather Forecast

Almanac

Astronomy

Sep. 30, 2014 Rise Set
Actual Time 7:25 AM CDT 7:15 PM CDT
Civil Twilight 6:59 AM CDT 7:41 PM CDT
Nautical Twilight 6:28 AM CDT 8:11 PM CDT
Astronomical Twilight 5:58 AM CDT 8:42 PM CDT
Moon 1:29 PM CDT (9/30) 11:51 PM CDT (9/30)
Length of Visible Light 12h 42m
Length of Day
11h 49m
Tomorrow will be 2m 24s shorter.
Waxing Crescent, 42% of the Moon is Illuminated
Today
Waxing Crescent
Oct 1
First Quarter
Oct 8
Full
Oct 15
Last Quarter
Oct 23
New

Today's Extremes

State Highs State Lows

Community

WunderPhotos

Upload Photos

1,757,815 photos uploaded!

Nearby

Snow Depth

Station Depth Elevation
No new snow has been reported.

Earthquake Activity

City Distance Mag. Time & Date
Perry, Oklahoma 105 miles 2.6 2:34 PM CDT
2014-09-30
Harper, Kansas 33 miles 2.9 1:49 PM CDT
2014-09-30
Yale, Oklahoma 113 miles 2.6 11:29 AM CDT
2014-09-30
Harper, Kansas 32 miles 3.1 10:24 AM CDT
2014-09-30
Minimum magnitude displayed is 2.5.

Coastal Water Temperatures

Place Temperature
No Stations Reporting

Nearby Weather Stations